sensor_id;sensor_type;location;lat;lon;timestamp;P1;P2;P0
69688;PMS5003;56932;38.402;-96.176;2023-03-14T00:00:40;0;0;
69688;PMS5003;56932;38.402;-96.176;2023-03-14T00:03:06;1;1;
69688;PMS5003;56932;38.402;-96.176;2023-03-14T00:05:31;0;0;
69688;PMS5003;56932;38.402;-96.176;2023-03-14T00:07:57;0;0;
69688;PMS5003;56932;38.402;-96.176;2023-03-14T00:10:22;2;2;
69688;PMS5003;56932;38.402;-96.176;2023-03-14T00:12:48;1;1;
69688;PMS5003;56932;38.402;-96.176;2023-03-14T00:15:13;0;0;
69688;PMS5003;56932;38.402;-96.176;2023-03-14T00:17:39;0;0;
69688;PMS5003;56932;38.402;-96.176;2023-03-14T00:20:05;1;0;
69688;PMS5003;56932;38.402;-96.176;2023-03-14T00:22:30;2;1;
69688;PMS5003;56932;38.402;-96.176;2023-03-14T00:24:55;0;0;
69688;PMS5003;56932;38.402;-96.176;2023-03-14T00:27:20;2;2;
69688;PMS5003;56932;38.402;-96.176;2023-03-14T00:29:46;2;1;
69688;PMS5003;56932;38.402;-96.176;2023-03-14T00:32:12;1;1;
69688;PMS5003;56932;38.402;-96.176;2023-03-14T00:34:37;1;1;
69688;PMS5003;56932;38.402;-96.176;2023-03-14T00:37:03;0;0;
69688;PMS5003;56932;38.402;-96.176;2023-03-14T00:39:28;2;1;
69688;PMS5003;56932;38.402;-96.176;2023-03-14T00:41:54;1;1;
69688;PMS5003;56932;38.402;-96.176;2023-03-14T00:44:19;3;3;
69688;PMS5003;56932;38.402;-96.176;2023-03-14T00:46:45;4;2;
69688;PMS5003;56932;38.402;-96.176;2023-03-14T00:49:11;2;2;
69688;PMS5003;56932;38.402;-96.176;2023-03-14T00:51:36;3;3;
69688;PMS5003;56932;38.402;-96.176;2023-03-14T00:54:02;2;2;
69688;PMS5003;56932;38.402;-96.176;2023-03-14T00:56:27;4;3;
69688;PMS5003;56932;38.402;-96.176;2023-03-14T00:58:53;3;3;
69688;PMS5003;56932;38.402;-96.176;2023-03-14T01:01:18;5;5;
69688;PMS5003;56932;38.402;-96.176;2023-03-14T01:03:44;3;3;
69688;PMS5003;56932;38.402;-96.176;2023-03-14T01:06:11;6;5;
69688;PMS5003;56932;38.402;-96.176;2023-03-14T01:08:35;5;5;
69688;PMS5003;56932;38.402;-96.176;2023-03-14T01:11:04;5;5;
69688;PMS5003;56932;38.402;-96.176;2023-03-14T01:13:26;5;5;
69688;PMS5003;56932;38.402;-96.176;2023-03-14T01:15:51;6;6;
69688;PMS5003;56932;38.402;-96.176;2023-03-14T01:18:17;8;8;
69688;PMS5003;56932;38.402;-96.176;2023-03-14T01:20:43;6;6;
69688;PMS5003;56932;38.402;-96.176;2023-03-14T01:23:09;8;7;
69688;PMS5003;56932;38.402;-96.176;2023-03-14T01:25:34;7;6;
69688;PMS5003;56932;38.402;-96.176;2023-03-14T01:27:59;6;6;
69688;PMS5003;56932;38.402;-96.176;2023-03-14T01:30:24;8;8;
69688;PMS5003;56932;38.402;-96.176;2023-03-14T01:32:50;9;7;
69688;PMS5003;56932;38.402;-96.176;2023-03-14T01:35:15;10;8;
69688;PMS5003;56932;38.402;-96.176;2023-03-14T01:37:41;11;11;
69688;PMS5003;56932;38.402;-96.176;2023-03-14T01:40:09;9;9;
69688;PMS5003;56932;38.402;-96.176;2023-03-14T01:42:32;8;8;
69688;PMS5003;56932;38.402;-96.176;2023-03-14T01:44:58;9;9;
69688;PMS5003;56932;38.402;-96.176;2023-03-14T01:47:23;12;9;
69688;PMS5003;56932;38.402;-96.176;2023-03-14T01:49:49;10;10;
69688;PMS5003;56932;38.402;-96.176;2023-03-14T01:52:15;9;8;
69688;PMS5003;56932;38.402;-96.176;2023-03-14T01:54:40;11;10;
69688;PMS5003;56932;38.402;-96.176;2023-03-14T01:57:07;13;9;
69688;PMS5003;56932;38.402;-96.176;2023-03-14T01:59:30;11;9;
69688;PMS5003;56932;38.402;-96.176;2023-03-14T02:01:56;11;10;
69688;PMS5003;56932;38.402;-96.176;2023-03-14T02:04:21;10;10;
69688;PMS5003;56932;38.402;-96.176;2023-03-14T02:06:48;10;9;
69688;PMS5003;56932;38.402;-96.176;2023-03-14T02:09:12;11;11;
69688;PMS5003;56932;38.402;-96.176;2023-03-14T02:11:37;12;7;
69688;PMS5003;56932;38.402;-96.176;2023-03-14T02:14:03;10;9;
69688;PMS5003;56932;38.402;-96.176;2023-03-14T02:16:28;13;9;
69688;PMS5003;56932;38.402;-96.176;2023-03-14T02:18:53;15;8;
69688;PMS5003;56932;38.402;-96.176;2023-03-14T02:21:20;12;11;
69688;PMS5003;56932;38.402;-96.176;2023-03-14T02:23:47;9;8;
69688;PMS5003;56932;38.402;-96.176;2023-03-14T02:26:11;12;11;
69688;PMS5003;56932;38.402;-96.176;2023-03-14T02:28:36;9;8;
69688;PMS5003;56932;38.402;-96.176;2023-03-14T02:31:01;8;6;
69688;PMS5003;56932;38.402;-96.176;2023-03-14T02:33:27;10;7;
69688;PMS5003;56932;38.402;-96.176;2023-03-14T02:35:52;8;6;
69688;PMS5003;56932;38.402;-96.176;2023-03-14T02:38:19;10;7;
69688;PMS5003;56932;38.402;-96.176;2023-03-14T02:40:43;7;6;
69688;PMS5003;56932;38.402;-96.176;2023-03-14T02:43:09;5;5;
69688;PMS5003;56932;38.402;-96.176;2023-03-14T02:45:38;6;6;
69688;PMS5003;56932;38.402;-96.176;2023-03-14T02:48:00;8;7;
69688;PMS5003;56932;38.402;-96.176;2023-03-14T02:50:26;5;5;
69688;PMS5003;56932;38.402;-96.176;2023-03-14T02:52:50;7;7;
69688;PMS5003;56932;38.402;-96.176;2023-03-14T02:55:19;6;6;
69688;PMS5003;56932;38.402;-96.176;2023-03-14T02:57:41;5;5;
69688;PMS5003;56932;38.402;-96.176;2023-03-14T03:00:08;5;5;
69688;PMS5003;56932;38.402;-96.176;2023-03-14T03:02:33;5;5;
69688;PMS5003;56932;38.402;-96.176;2023-03-14T03:04:58;7;5;
69688;PMS5003;56932;38.402;-96.176;2023-03-14T03:07:24;4;4;
69688;PMS5003;56932;38.402;-96.176;2023-03-14T03:09:49;5;5;
69688;PMS5003;56932;38.402;-96.176;2023-03-14T03:12:15;8;7;
69688;PMS5003;56932;38.402;-96.176;2023-03-14T03:14:40;7;6;
69688;PMS5003;56932;38.402;-96.176;2023-03-14T03:17:06;3;3;
69688;PMS5003;56932;38.402;-96.176;2023-03-14T03:19:31;4;4;
69688;PMS5003;56932;38.402;-96.176;2023-03-14T03:21:57;5;5;
69688;PMS5003;56932;38.402;-96.176;2023-03-14T03:24:22;5;5;
69688;PMS5003;56932;38.402;-96.176;2023-03-14T03:26:48;7;5;
69688;PMS5003;56932;38.402;-96.176;2023-03-14T03:29:14;5;4;
69688;PMS5003;56932;38.402;-96.176;2023-03-14T03:31:39;3;3;
69688;PMS5003;56932;38.402;-96.176;2023-03-14T03:34:05;5;4;
69688;PMS5003;56932;38.402;-96.176;2023-03-14T03:36:30;4;4;
69688;PMS5003;56932;38.402;-96.176;2023-03-14T03:38:56;5;5;
69688;PMS5003;56932;38.402;-96.176;2023-03-14T03:41:21;7;4;
69688;PMS5003;56932;38.402;-96.176;2023-03-14T03:43:47;3;3;
69688;PMS5003;56932;38.402;-96.176;2023-03-14T03:46:12;5;5;
69688;PMS5003;56932;38.402;-96.176;2023-03-14T03:48:38;2;2;
69688;PMS5003;56932;38.402;-96.176;2023-03-14T03:51:04;4;1;
69688;PMS5003;56932;38.402;-96.176;2023-03-14T03:53:29;4;4;
69688;PMS5003;56932;38.402;-96.176;2023-03-14T03:55:55;3;3;
69688;PMS5003;56932;38.402;-96.176;2023-03-14T03:58:20;3;3;
69688;PMS5003;56932;38.402;-96.176;2023-03-14T04:00:46;4;3;
69688;PMS5003;56932;38.402;-96.176;2023-03-14T04:03:12;3;3;
69688;PMS5003;56932;38.402;-96.176;2023-03-14T04:05:37;1;1;
69688;PMS5003;56932;38.402;-96.176;2023-03-14T04:08:03;2;2;
69688;PMS5003;56932;38.402;-96.176;2023-03-14T04:10:29;3;3;
69688;PMS5003;56932;38.402;-96.176;2023-03-14T04:12:54;5;5;
69688;PMS5003;56932;38.402;-96.176;2023-03-14T04:15:19;1;1;
69688;PMS5003;56932;38.402;-96.176;2023-03-14T04:17:45;2;2;
69688;PMS5003;56932;38.402;-96.176;2023-03-14T04:20:11;3;3;
69688;PMS5003;56932;38.402;-96.176;2023-03-14T04:22:36;2;2;
69688;PMS5003;56932;38.402;-96.176;2023-03-14T04:25:02;4;2;
69688;PMS5003;56932;38.402;-96.176;2023-03-14T04:27:27;4;4;
69688;PMS5003;56932;38.402;-96.176;2023-03-14T04:29:53;2;2;
69688;PMS5003;56932;38.402;-96.176;2023-03-14T04:32:18;3;3;
69688;PMS5003;56932;38.402;-96.176;2023-03-14T04:34:44;2;2;
69688;PMS5003;56932;38.402;-96.176;2023-03-14T04:37:10;2;2;
69688;PMS5003;56932;38.402;-96.176;2023-03-14T04:39:35;2;2;
69688;PMS5003;56932;38.402;-96.176;2023-03-14T04:42:01;3;2;
69688;PMS5003;56932;38.402;-96.176;2023-03-14T04:44:26;6;3;
69688;PMS5003;56932;38.402;-96.176;2023-03-14T04:46:52;2;2;
69688;PMS5003;56932;38.402;-96.176;2023-03-14T04:49:17;1;1;
69688;PMS5003;56932;38.402;-96.176;2023-03-14T04:51:43;2;1;
69688;PMS5003;56932;38.402;-96.176;2023-03-14T04:54:09;2;2;
69688;PMS5003;56932;38.402;-96.176;2023-03-14T04:56:34;2;1;
69688;PMS5003;56932;38.402;-96.176;2023-03-14T04:58:59;2;2;
69688;PMS5003;56932;38.402;-96.176;2023-03-14T05:01:25;4;2;
69688;PMS5003;56932;38.402;-96.176;2023-03-14T05:03:50;1;1;
69688;PMS5003;56932;38.402;-96.176;2023-03-14T05:06:16;2;2;
69688;PMS5003;56932;38.402;-96.176;2023-03-14T05:08:41;3;2;
69688;PMS5003;56932;38.402;-96.176;2023-03-14T05:11:09;1;1;
69688;PMS5003;56932;38.402;-96.176;2023-03-14T05:13:32;2;2;
69688;PMS5003;56932;38.402;-96.176;2023-03-14T05:18:23;3;3;
69688;PMS5003;56932;38.402;-96.176;2023-03-14T05:20:50;1;1;
69688;PMS5003;56932;38.402;-96.176;2023-03-14T05:23:15;1;1;
69688;PMS5003;56932;38.402;-96.176;2023-03-14T05:25:42;1;1;
69688;PMS5003;56932;38.402;-96.176;2023-03-14T05:28:06;2;2;
69688;PMS5003;56932;38.402;-96.176;2023-03-14T05:30:31;3;3;
69688;PMS5003;56932;38.402;-96.176;2023-03-14T05:32:56;2;2;
69688;PMS5003;56932;38.402;-96.176;2023-03-14T05:35:22;3;3;
69688;PMS5003;56932;38.402;-96.176;2023-03-14T05:37:48;3;3;
69688;PMS5003;56932;38.402;-96.176;2023-03-14T05:40:13;3;2;
69688;PMS5003;56932;38.402;-96.176;2023-03-14T05:42:39;3;3;
69688;PMS5003;56932;38.402;-96.176;2023-03-14T05:45:05;2;2;
69688;PMS5003;56932;38.402;-96.176;2023-03-14T05:47:30;4;3;
69688;PMS5003;56932;38.402;-96.176;2023-03-14T05:49:55;2;2;
69688;PMS5003;56932;38.402;-96.176;2023-03-14T05:52:21;5;5;
69688;PMS5003;56932;38.402;-96.176;2023-03-14T05:54:46;4;4;
69688;PMS5003;56932;38.402;-96.176;2023-03-14T05:57:12;3;3;
69688;PMS5003;56932;38.402;-96.176;2023-03-14T05:59:37;2;2;
69688;PMS5003;56932;38.402;-96.176;2023-03-14T06:02:03;2;2;
69688;PMS5003;56932;38.402;-96.176;2023-03-14T06:04:29;4;3;
69688;PMS5003;56932;38.402;-96.176;2023-03-14T06:06:54;4;4;
69688;PMS5003;56932;38.402;-96.176;2023-03-14T06:09:20;4;2;
69688;PMS5003;56932;38.402;-96.176;2023-03-14T06:11:45;3;3;
69688;PMS5003;56932;38.402;-96.176;2023-03-14T06:14:11;3;3;
69688;PMS5003;56932;38.402;-96.176;2023-03-14T06:16:36;5;5;
69688;PMS5003;56932;38.402;-96.176;2023-03-14T06:19:02;2;2;
69688;PMS5003;56932;38.402;-96.176;2023-03-14T06:21:27;5;3;
69688;PMS5003;56932;38.402;-96.176;2023-03-14T06:23:53;5;5;
69688;PMS5003;56932;38.402;-96.176;2023-03-14T06:26:18;4;4;
69688;PMS5003;56932;38.402;-96.176;2023-03-14T06:28:44;5;4;
69688;PMS5003;56932;38.402;-96.176;2023-03-14T06:31:09;4;4;
69688;PMS5003;56932;38.402;-96.176;2023-03-14T06:33:35;7;5;
69688;PMS5003;56932;38.402;-96.176;2023-03-14T06:36:00;6;6;
69688;PMS5003;56932;38.402;-96.176;2023-03-14T06:38:26;6;6;
69688;PMS5003;56932;38.402;-96.176;2023-03-14T06:40:52;3;3;
69688;PMS5003;56932;38.402;-96.176;2023-03-14T06:43:17;5;4;
69688;PMS5003;56932;38.402;-96.176;2023-03-14T06:45:43;6;5;
69688;PMS5003;56932;38.402;-96.176;2023-03-14T06:48:08;3;3;
69688;PMS5003;56932;38.402;-96.176;2023-03-14T06:50:33;5;5;
69688;PMS5003;56932;38.402;-96.176;2023-03-14T06:52:59;6;6;
69688;PMS5003;56932;38.402;-96.176;2023-03-14T06:55:25;6;6;
69688;PMS5003;56932;38.402;-96.176;2023-03-14T06:57:50;6;6;
69688;PMS5003;56932;38.402;-96.176;2023-03-14T07:00:16;8;7;
69688;PMS5003;56932;38.402;-96.176;2023-03-14T07:02:41;5;5;
69688;PMS5003;56932;38.402;-96.176;2023-03-14T07:05:07;7;7;
69688;PMS5003;56932;38.402;-96.176;2023-03-14T07:07:32;5;5;
69688;PMS5003;56932;38.402;-96.176;2023-03-14T07:09:58;9;9;
69688;PMS5003;56932;38.402;-96.176;2023-03-14T07:12:23;5;5;
69688;PMS5003;56932;38.402;-96.176;2023-03-14T07:14:49;7;7;
69688;PMS5003;56932;38.402;-96.176;2023-03-14T07:17:15;7;6;
69688;PMS5003;56932;38.402;-96.176;2023-03-14T07:19:40;8;6;
69688;PMS5003;56932;38.402;-96.176;2023-03-14T07:22:06;5;4;
69688;PMS5003;56932;38.402;-96.176;2023-03-14T07:24:31;7;5;
69688;PMS5003;56932;38.402;-96.176;2023-03-14T07:26:57;6;6;
69688;PMS5003;56932;38.402;-96.176;2023-03-14T07:29:22;5;4;
69688;PMS5003;56932;38.402;-96.176;2023-03-14T07:31:48;11;8;
69688;PMS5003;56932;38.402;-96.176;2023-03-14T07:34:14;7;7;
69688;PMS5003;56932;38.402;-96.176;2023-03-14T07:36:39;6;6;
69688;PMS5003;56932;38.402;-96.176;2023-03-14T07:39:04;10;8;
69688;PMS5003;56932;38.402;-96.176;2023-03-14T07:41:30;7;6;
69688;PMS5003;56932;38.402;-96.176;2023-03-14T07:43:55;8;8;
69688;PMS5003;56932;38.402;-96.176;2023-03-14T07:46:20;7;7;
69688;PMS5003;56932;38.402;-96.176;2023-03-14T07:48:46;7;7;
69688;PMS5003;56932;38.402;-96.176;2023-03-14T07:51:12;10;8;
69688;PMS5003;56932;38.402;-96.176;2023-03-14T07:53:37;7;7;
69688;PMS5003;56932;38.402;-96.176;2023-03-14T07:56:03;7;7;
69688;PMS5003;56932;38.402;-96.176;2023-03-14T07:58:28;5;5;
69688;PMS5003;56932;38.402;-96.176;2023-03-14T08:00:54;6;6;
69688;PMS5003;56932;38.402;-96.176;2023-03-14T08:03:19;15;9;
69688;PMS5003;56932;38.402;-96.176;2023-03-14T08:05:47;8;7;
69688;PMS5003;56932;38.402;-96.176;2023-03-14T08:08:10;5;4;
69688;PMS5003;56932;38.402;-96.176;2023-03-14T08:10:36;11;8;
69688;PMS5003;56932;38.402;-96.176;2023-03-14T08:13:02;6;6;
69688;PMS5003;56932;38.402;-96.176;2023-03-14T08:15:28;7;7;
69688;PMS5003;56932;38.402;-96.176;2023-03-14T08:17:53;9;8;
69688;PMS5003;56932;38.402;-96.176;2023-03-14T08:20:19;9;9;
69688;PMS5003;56932;38.402;-96.176;2023-03-14T08:22:44;7;7;
69688;PMS5003;56932;38.402;-96.176;2023-03-14T08:25:10;7;7;
69688;PMS5003;56932;38.402;-96.176;2023-03-14T08:27:35;8;8;
69688;PMS5003;56932;38.402;-96.176;2023-03-14T08:30:01;8;8;
69688;PMS5003;56932;38.402;-96.176;2023-03-14T08:32:26;6;6;
69688;PMS5003;56932;38.402;-96.176;2023-03-14T08:34:52;6;6;
69688;PMS5003;56932;38.402;-96.176;2023-03-14T08:37:17;8;6;
69688;PMS5003;56932;38.402;-96.176;2023-03-14T08:39:43;7;7;
69688;PMS5003;56932;38.402;-96.176;2023-03-14T08:42:09;9;6;
69688;PMS5003;56932;38.402;-96.176;2023-03-14T08:44:34;9;8;
69688;PMS5003;56932;38.402;-96.176;2023-03-14T08:47:00;7;7;
69688;PMS5003;56932;38.402;-96.176;2023-03-14T08:49:25;9;9;
69688;PMS5003;56932;38.402;-96.176;2023-03-14T08:51:51;5;5;
69688;PMS5003;56932;38.402;-96.176;2023-03-14T08:54:16;5;5;
69688;PMS5003;56932;38.402;-96.176;2023-03-14T08:56:41;8;8;
69688;PMS5003;56932;38.402;-96.176;2023-03-14T08:59:07;5;5;
69688;PMS5003;56932;38.402;-96.176;2023-03-14T09:01:32;9;8;
69688;PMS5003;56932;38.402;-96.176;2023-03-14T09:03:58;9;6;
69688;PMS5003;56932;38.402;-96.176;2023-03-14T09:06:23;8;8;
69688;PMS5003;56932;38.402;-96.176;2023-03-14T09:08:49;7;7;
69688;PMS5003;56932;38.402;-96.176;2023-03-14T09:11:14;9;9;
69688;PMS5003;56932;38.402;-96.176;2023-03-14T09:13:40;11;9;
69688;PMS5003;56932;38.402;-96.176;2023-03-14T09:16:06;5;5;
69688;PMS5003;56932;38.402;-96.176;2023-03-14T09:18:31;7;7;
69688;PMS5003;56932;38.402;-96.176;2023-03-14T09:20:57;7;7;
69688;PMS5003;56932;38.402;-96.176;2023-03-14T09:23:22;8;7;
69688;PMS5003;56932;38.402;-96.176;2023-03-14T09:25:48;7;6;
69688;PMS5003;56932;38.402;-96.176;2023-03-14T09:28:13;7;7;
69688;PMS5003;56932;38.402;-96.176;2023-03-14T09:30:39;7;6;
69688;PMS5003;56932;38.402;-96.176;2023-03-14T09:33:04;9;9;
69688;PMS5003;56932;38.402;-96.176;2023-03-14T09:35:30;9;8;
69688;PMS5003;56932;38.402;-96.176;2023-03-14T09:37:56;8;8;
69688;PMS5003;56932;38.402;-96.176;2023-03-14T09:40:21;12;10;
69688;PMS5003;56932;38.402;-96.176;2023-03-14T09:42:47;8;8;
69688;PMS5003;56932;38.402;-96.176;2023-03-14T09:45:13;9;8;
69688;PMS5003;56932;38.402;-96.176;2023-03-14T09:47:37;6;6;
69688;PMS5003;56932;38.402;-96.176;2023-03-14T09:50:03;8;8;
69688;PMS5003;56932;38.402;-96.176;2023-03-14T09:52:29;9;7;
69688;PMS5003;56932;38.402;-96.176;2023-03-14T09:54:54;9;9;
69688;PMS5003;56932;38.402;-96.176;2023-03-14T09:57:20;11;8;
69688;PMS5003;56932;38.402;-96.176;2023-03-14T09:59:45;8;8;
69688;PMS5003;56932;38.402;-96.176;2023-03-14T10:02:14;7;7;
69688;PMS5003;56932;38.402;-96.176;2023-03-14T10:04:36;7;6;
69688;PMS5003;56932;38.402;-96.176;2023-03-14T10:07:01;9;6;
69688;PMS5003;56932;38.402;-96.176;2023-03-14T10:09:27;5;5;
69688;PMS5003;56932;38.402;-96.176;2023-03-14T10:11:54;11;7;
69688;PMS5003;56932;38.402;-96.176;2023-03-14T10:16:44;8;6;
69688;PMS5003;56932;38.402;-96.176;2023-03-14T10:19:10;9;8;
69688;PMS5003;56932;38.402;-96.176;2023-03-14T10:21:36;8;8;
69688;PMS5003;56932;38.402;-96.176;2023-03-14T10:26:27;7;6;
69688;PMS5003;56932;38.402;-96.176;2023-03-14T10:28:52;6;6;
69688;PMS5003;56932;38.402;-96.176;2023-03-14T10:31:17;6;6;
69688;PMS5003;56932;38.402;-96.176;2023-03-14T10:33:43;8;6;
69688;PMS5003;56932;38.402;-96.176;2023-03-14T10:38:34;5;5;
69688;PMS5003;56932;38.402;-96.176;2023-03-14T10:40:59;8;8;
69688;PMS5003;56932;38.402;-96.176;2023-03-14T10:43:25;8;8;
69688;PMS5003;56932;38.402;-96.176;2023-03-14T10:45:51;6;5;
69688;PMS5003;56932;38.402;-96.176;2023-03-14T10:48:18;12;6;
69688;PMS5003;56932;38.402;-96.176;2023-03-14T10:50:43;6;5;
69688;PMS5003;56932;38.402;-96.176;2023-03-14T10:53:07;7;6;
69688;PMS5003;56932;38.402;-96.176;2023-03-14T10:57:57;9;9;
69688;PMS5003;56932;38.402;-96.176;2023-03-14T11:00:23;12;5;
69688;PMS5003;56932;38.402;-96.176;2023-03-14T11:02:54;4;4;
69688;PMS5003;56932;38.402;-96.176;2023-03-14T11:05:18;7;5;
69688;PMS5003;56932;38.402;-96.176;2023-03-14T11:07:40;8;8;
69688;PMS5003;56932;38.402;-96.176;2023-03-14T11:10:09;8;5;
69688;PMS5003;56932;38.402;-96.176;2023-03-14T11:12:36;8;8;
69688;PMS5003;56932;38.402;-96.176;2023-03-14T11:14:57;5;5;
69688;PMS5003;56932;38.402;-96.176;2023-03-14T11:17:23;6;6;
69688;PMS5003;56932;38.402;-96.176;2023-03-14T11:19:49;8;7;
69688;PMS5003;56932;38.402;-96.176;2023-03-14T11:22:16;10;8;
69688;PMS5003;56932;38.402;-96.176;2023-03-14T11:24:43;9;8;
69688;PMS5003;56932;38.402;-96.176;2023-03-14T11:27:06;10;10;
69688;PMS5003;56932;38.402;-96.176;2023-03-14T11:29:31;7;6;
69688;PMS5003;56932;38.402;-96.176;2023-03-14T11:31:55;7;7;
69688;PMS5003;56932;38.402;-96.176;2023-03-14T11:34:22;7;7;
69688;PMS5003;56932;38.402;-96.176;2023-03-14T11:36:48;9;8;
69688;PMS5003;56932;38.402;-96.176;2023-03-14T11:39:12;6;6;
69688;PMS5003;56932;38.402;-96.176;2023-03-14T11:41:37;9;7;
69688;PMS5003;56932;38.402;-96.176;2023-03-14T11:44:02;8;8;
69688;PMS5003;56932;38.402;-96.176;2023-03-14T11:46:28;9;7;
69688;PMS5003;56932;38.402;-96.176;2023-03-14T11:48:56;6;6;
69688;PMS5003;56932;38.402;-96.176;2023-03-14T11:51:21;7;5;
69688;PMS5003;56932;38.402;-96.176;2023-03-14T11:53:47;6;6;
69688;PMS5003;56932;38.402;-96.176;2023-03-14T11:56:10;8;8;
69688;PMS5003;56932;38.402;-96.176;2023-03-14T11:58:35;8;6;
69688;PMS5003;56932;38.402;-96.176;2023-03-14T12:01:01;7;6;
69688;PMS5003;56932;38.402;-96.176;2023-03-14T12:03:28;9;6;
69688;PMS5003;56932;38.402;-96.176;2023-03-14T12:05:54;8;8;
69688;PMS5003;56932;38.402;-96.176;2023-03-14T12:08:24;8;7;
69688;PMS5003;56932;38.402;-96.176;2023-03-14T12:10:43;5;5;
69688;PMS5003;56932;38.402;-96.176;2023-03-14T12:13:08;5;5;
69688;PMS5003;56932;38.402;-96.176;2023-03-14T12:15:33;7;7;
69688;PMS5003;56932;38.402;-96.176;2023-03-14T12:17:59;5;5;
69688;PMS5003;56932;38.402;-96.176;2023-03-14T12:20:24;5;5;
69688;PMS5003;56932;38.402;-96.176;2023-03-14T12:22:50;7;7;
69688;PMS5003;56932;38.402;-96.176;2023-03-14T12:25:16;5;5;
69688;PMS5003;56932;38.402;-96.176;2023-03-14T12:27:45;7;6;
69688;PMS5003;56932;38.402;-96.176;2023-03-14T12:32:32;8;5;
69688;PMS5003;56932;38.402;-96.176;2023-03-14T12:34:57;5;5;
69688;PMS5003;56932;38.402;-96.176;2023-03-14T12:37:25;5;5;
69688;PMS5003;56932;38.402;-96.176;2023-03-14T12:39:53;5;5;
69688;PMS5003;56932;38.402;-96.176;2023-03-14T12:42:17;5;5;
69688;PMS5003;56932;38.402;-96.176;2023-03-14T12:44:41;7;6;
69688;PMS5003;56932;38.402;-96.176;2023-03-14T12:49:31;7;5;
69688;PMS5003;56932;38.402;-96.176;2023-03-14T12:51:58;6;5;
69688;PMS5003;56932;38.402;-96.176;2023-03-14T12:54:26;5;5;
69688;PMS5003;56932;38.402;-96.176;2023-03-14T12:59:20;6;6;
69688;PMS5003;56932;38.402;-96.176;2023-03-14T13:01:40;6;6;
69688;PMS5003;56932;38.402;-96.176;2023-03-14T13:04:07;4;4;
69688;PMS5003;56932;38.402;-96.176;2023-03-14T13:08:55;6;4;
69688;PMS5003;56932;38.402;-96.176;2023-03-14T13:11:20;5;5;
69688;PMS5003;56932;38.402;-96.176;2023-03-14T13:13:47;4;4;
69688;PMS5003;56932;38.402;-96.176;2023-03-14T13:16:14;6;6;
69688;PMS5003;56932;38.402;-96.176;2023-03-14T13:18:37;7;6;
69688;PMS5003;56932;38.402;-96.176;2023-03-14T13:21:03;4;4;
69688;PMS5003;56932;38.402;-96.176;2023-03-14T13:23:29;5;5;
69688;PMS5003;56932;38.402;-96.176;2023-03-14T13:25:54;4;4;
69688;PMS5003;56932;38.402;-96.176;2023-03-14T13:28:19;3;3;
69688;PMS5003;56932;38.402;-96.176;2023-03-14T13:30:45;6;6;
69688;PMS5003;56932;38.402;-96.176;2023-03-14T13:33:12;5;5;
69688;PMS5003;56932;38.402;-96.176;2023-03-14T13:35:40;7;5;
69688;PMS5003;56932;38.402;-96.176;2023-03-14T13:38:01;5;3;
69688;PMS5003;56932;38.402;-96.176;2023-03-14T13:40:29;5;5;
69688;PMS5003;56932;38.402;-96.176;2023-03-14T13:45:17;4;4;
69688;PMS5003;56932;38.402;-96.176;2023-03-14T13:47:43;3;2;
69688;PMS5003;56932;38.402;-96.176;2023-03-14T13:52:35;7;7;
69688;PMS5003;56932;38.402;-96.176;2023-03-14T13:55:00;5;5;
69688;PMS5003;56932;38.402;-96.176;2023-03-14T13:57:25;6;5;
69688;PMS5003;56932;38.402;-96.176;2023-03-14T14:02:16;4;4;
69688;PMS5003;56932;38.402;-96.176;2023-03-14T14:04:42;6;6;
69688;PMS5003;56932;38.402;-96.176;2023-03-14T14:07:08;5;4;
69688;PMS5003;56932;38.402;-96.176;2023-03-14T14:09:36;5;4;
69688;PMS5003;56932;38.402;-96.176;2023-03-14T14:11:58;5;5;
69688;PMS5003;56932;38.402;-96.176;2023-03-14T14:14:25;3;3;
69688;PMS5003;56932;38.402;-96.176;2023-03-14T14:16:49;7;7;
69688;PMS5003;56932;38.402;-96.176;2023-03-14T14:19:14;4;3;
69688;PMS5003;56932;38.402;-96.176;2023-03-14T14:21:40;6;5;
69688;PMS5003;56932;38.402;-96.176;2023-03-14T14:24:07;4;4;
69688;PMS5003;56932;38.402;-96.176;2023-03-14T14:26:31;5;5;
69688;PMS5003;56932;38.402;-96.176;2023-03-14T14:28:59;6;4;
69688;PMS5003;56932;38.402;-96.176;2023-03-14T14:31:22;6;4;
69688;PMS5003;56932;38.402;-96.176;2023-03-14T14:33:53;5;5;
69688;PMS5003;56932;38.402;-96.176;2023-03-14T14:36:16;5;5;
69688;PMS5003;56932;38.402;-96.176;2023-03-14T14:38:39;4;4;
69688;PMS5003;56932;38.402;-96.176;2023-03-14T14:41:05;5;4;
69688;PMS5003;56932;38.402;-96.176;2023-03-14T14:43:30;5;4;
69688;PMS5003;56932;38.402;-96.176;2023-03-14T14:45:56;6;5;
69688;PMS5003;56932;38.402;-96.176;2023-03-14T14:48:22;5;4;
69688;PMS5003;56932;38.402;-96.176;2023-03-14T14:50:55;4;4;
69688;PMS5003;56932;38.402;-96.176;2023-03-14T14:55:39;2;2;
69688;PMS5003;56932;38.402;-96.176;2023-03-14T15:00:29;3;3;
69688;PMS5003;56932;38.402;-96.176;2023-03-14T15:02:55;3;3;
69688;PMS5003;56932;38.402;-96.176;2023-03-14T15:05:21;3;3;
69688;PMS5003;56932;38.402;-96.176;2023-03-14T15:07:46;3;3;
69688;PMS5003;56932;38.402;-96.176;2023-03-14T15:10:12;1;1;
69688;PMS5003;56932;38.402;-96.176;2023-03-14T15:12:37;2;2;
69688;PMS5003;56932;38.402;-96.176;2023-03-14T15:15:03;2;2;
69688;PMS5003;56932;38.402;-96.176;2023-03-14T15:17:28;6;5;
69688;PMS5003;56932;38.402;-96.176;2023-03-14T15:19:53;1;1;
69688;PMS5003;56932;38.402;-96.176;2023-03-14T15:22:19;2;2;
69688;PMS5003;56932;38.402;-96.176;2023-03-14T15:24:45;3;3;
69688;PMS5003;56932;38.402;-96.176;2023-03-14T15:27:12;1;1;
69688;PMS5003;56932;38.402;-96.176;2023-03-14T15:29:36;2;2;
69688;PMS5003;56932;38.402;-96.176;2023-03-14T15:32:01;1;1;
69688;PMS5003;56932;38.402;-96.176;2023-03-14T15:34:27;2;2;
69688;PMS5003;56932;38.402;-96.176;2023-03-14T15:36:52;3;1;
69688;PMS5003;56932;38.402;-96.176;2023-03-14T15:39:18;2;2;
69688;PMS5003;56932;38.402;-96.176;2023-03-14T15:41:43;3;1;
69688;PMS5003;56932;38.402;-96.176;2023-03-14T15:44:09;2;2;
69688;PMS5003;56932;38.402;-96.176;2023-03-14T15:46:34;2;2;
69688;PMS5003;56932;38.402;-96.176;2023-03-14T15:49:00;3;2;
69688;PMS5003;56932;38.402;-96.176;2023-03-14T15:51:26;3;3;
69688;PMS5003;56932;38.402;-96.176;2023-03-14T15:53:51;1;1;
69688;PMS5003;56932;38.402;-96.176;2023-03-14T15:56:17;1;1;
69688;PMS5003;56932;38.402;-96.176;2023-03-14T15:58:42;3;2;
69688;PMS5003;56932;38.402;-96.176;2023-03-14T16:01:08;2;2;
69688;PMS5003;56932;38.402;-96.176;2023-03-14T16:03:33;2;2;
69688;PMS5003;56932;38.402;-96.176;2023-03-14T16:05:58;0;0;
69688;PMS5003;56932;38.402;-96.176;2023-03-14T16:08:24;1;1;
69688;PMS5003;56932;38.402;-96.176;2023-03-14T16:10:49;2;2;
69688;PMS5003;56932;38.402;-96.176;2023-03-14T16:13:15;3;2;
69688;PMS5003;56932;38.402;-96.176;2023-03-14T16:15:40;2;2;
69688;PMS5003;56932;38.402;-96.176;2023-03-14T16:18:06;4;3;
69688;PMS5003;56932;38.402;-96.176;2023-03-14T16:20:32;2;2;
69688;PMS5003;56932;38.402;-96.176;2023-03-14T16:22:57;1;1;
69688;PMS5003;56932;38.402;-96.176;2023-03-14T16:25:23;2;2;
69688;PMS5003;56932;38.402;-96.176;2023-03-14T16:27:48;2;2;
69688;PMS5003;56932;38.402;-96.176;2023-03-14T16:30:14;3;3;
69688;PMS5003;56932;38.402;-96.176;2023-03-14T16:32:39;2;2;
69688;PMS5003;56932;38.402;-96.176;2023-03-14T16:35:05;1;1;
69688;PMS5003;56932;38.402;-96.176;2023-03-14T16:37:30;2;2;